﻿ProjectID	SampleID	SampleType	TaxonomyID	UniqCodeType	UniqCode	SampleName	ScientificName	CommonName	CollectionYear	CollectionMonth	CollectionDay	SamplingTimeStartEnd	SamplingTimeAMPM	SamplingDuration	WeatherStartEnd	CollectionRegion	CollectionCountry	CollectionArea	CollectionLatitudeFrom	CollectionLatitudeTo	CollectionLongitudeFrom	CollectionLongitudeTo	Sex	TissueOrgan	TissueLipid	TissueMoist	Weight	WeightUnit	Length	LengthUnit	LengthType	GrowthStage	Age	Disease	TemperatureStartEnd	WaterTemperatureStartEnd	pH	DO	EC	EC_temp	Salinity	SS	WaterDepthM	TransparencyM	WaterColor	SedimentTemperatureStartEnd	SedimentDepthM	SedimentAppearance	SedimentColor	SedimentSurfaceColor	SedimentOdor	SedimentImpurities	SedimentMoistureOnSiteAnalysis	IgnitionLossOnSiteAnalysis	SoilDepthM	FlowRate	MeanPM10	MeanTotalSuspendedParticles	HumidityStartEnd	WindDirectionStartEnd	WindSpeedMSStartEnd	AmountOfCollectedAirStartEnd	Remarks	RegisterDate	UpdateDate
PRA000033	SAA002004	ST014				M-Summer	Water	"Sea  water"	2010	7	27	2010-07-27T15:30				Asia	Japan	"Mogushi, Kumamoto"	32.203		129.996															28																											"Estimated bathers(min-max): 100-150; Analyzed in triplicates (n=3) "	2017/4/28	2019/7/17
PRA000033	SAA002005	ST014				M-Winter	Water	"Sea  water"	2010	12	1	2010-12-01T13:00				Asia	Japan	"Mogushi, Kumamoto"	32.203		129.996															21																											"Estimated bathers(min-max): 0; Analyzed in triplicates (n=3) "	2017/4/28	2019/7/17
PRA000033	SAA002006	ST014				W-Summer	Water	"Sea  water"	2010	7	27	2010-07-27T11:30				Asia	Japan	"Wakamiya, Kumamoto"	32.537876		130.191823															29																											"Estimated bathers(min-max): 25-50; Analyzed in triplicates (n=3) "	2017/4/28	2019/7/17
PRA000033	SAA002007	ST014				W-Winter	Water	"Sea  water"	2010	12	1	2010-12-01T10:30				Asia	Japan	"Wakamiya, Kumamoto"	32.537876		130.191823															15																											"Estimated bathers(min-max): 0; Analyzed in triplicates (n=3) "	2017/4/28	2019/7/17
PRA000033	SAA002008	ST014				T-Summer	Water	"Sea  water"	2010	8	15	2010-08-15T11:30				Asia	Japan	"Tsurugahama, Kumamoto"	32.317		130.47															22																											"Estimated bathers(min-max): 100-150; Analyzed in triplicates (n=3) "	2017/4/28	2019/7/17
PRA000033	SAA002009	ST014				T-Winter	Water	"Sea  water"	2010	12	19	2010-12-19T10:00				Asia	Japan	"Tsurugahama, Kumamoto"	32.317		130.47															16																											"Estimated bathers(min-max): 0; Analyzed in triplicates (n=3) "	2017/4/28	2019/7/17
PRA000033	SAA002010	ST014				O-Summer	Water	"Sea  water"	2010	8	15	2010-08-15T12:00				Asia	Japan	"Otachimisaki, Kumamoto"	32.363		130.488															27																											"Estimated bathers(min-max): 200-300; Analyzed in triplicates (n=3) "	2017/4/28	2019/7/17
PRA000033	SAA002011	ST014				O-Winter	Water	"Sea  water"	2010	12	9	2010-12-09T11:00				Asia	Japan	"Otachimisaki, Kumamoto"	32.363		130.488															17																											"Estimated bathers(min-max): 0; Analyzed in triplicates (n=3) "	2017/4/28	2019/7/17
PRA000033	SAA002012	ST014				O-11072609	Water	"Sea  water"	2011	7	26	2011-07-26T09:00				Asia	Japan	"Otachimisaki, Kumamoto"	32.363		130.488															28																											"Number of bathers: 26; Analyzed in triplicates (n=3) "	2017/4/28	2019/7/17
PRA000033	SAA002013	ST014				O-11072610	Water	"Sea  water"	2011	7	26	2011-07-26T10:00				Asia	Japan	"Otachimisaki, Kumamoto"	32.363		130.488															28																											"Number of bathers: 38; Analyzed in triplicates (n=3) "	2017/4/28	2019/7/17
PRA000033	SAA002014	ST014				O-11072611	Water	"Sea  water"	2011	7	26	2011-07-26T11:00				Asia	Japan	"Otachimisaki, Kumamoto"	32.363		130.488															28																											"Number of bathers: 72; Analyzed in triplicates (n=3) "	2017/4/28	2019/7/17
PRA000033	SAA002015	ST014				O-11072612	Water	"Sea  water"	2011	7	26	2011-07-26T12:00				Asia	Japan	"Otachimisaki, Kumamoto"	32.363		130.488															28																											"Number of bathers: 104; Analyzed in triplicates (n=3) "	2017/4/28	2019/7/17
PRA000033	SAA002016	ST014				O-11072613	Water	"Sea  water"	2011	7	26	2011-07-26T13:00				Asia	Japan	"Otachimisaki, Kumamoto"	32.363		130.488															27																											"Number of bathers: 129; Analyzed in triplicates (n=3) "	2017/4/28	2019/7/17
PRA000033	SAA002017	ST014				O-11072614	Water	"Sea  water"	2011	7	26	2011-07-26T14:00				Asia	Japan	"Otachimisaki, Kumamoto"	32.363		130.488															28																											"Number of bathers: 148; Analyzed in triplicates (n=3) "	2017/4/28	2019/7/17
PRA000033	SAA002018	ST014				O-11072615	Water	"Sea  water"	2011	7	26	2011-07-26T15:00				Asia	Japan	"Otachimisaki, Kumamoto"	32.363		130.488															28																											"Number of bathers: 210; Analyzed in triplicates (n=3) "	2017/4/28	2019/7/17
PRA000033	SAA002019	ST014				O-11072616	Water	"Sea  water"	2011	7	26	2011-07-26T16:00				Asia	Japan	"Otachimisaki, Kumamoto"	32.363		130.488															28																											"Number of bathers: 69; Analyzed in triplicates (n=3) "	2017/4/28	2019/7/17
PRA000033	SAA002020	ST014				O-11072617	Water	"Sea  water"	2011	7	26	2011-07-26T17:00				Asia	Japan	"Otachimisaki, Kumamoto"	32.363		130.488															28																											"Number of bathers: 15; Analyzed in triplicates (n=3) "	2017/4/28	2019/7/17
PRA000033	SAA002021	ST014				O-11072618	Water	"Sea  water"	2011	7	26	2011-07-26T18:00				Asia	Japan	"Otachimisaki, Kumamoto"	32.363		130.488															27																											"Number of bathers: 4; Analyzed in triplicates (n=3) "	2017/4/28	2019/7/17
PRA000033	SAA002022	ST014				O-11072619	Water	"Sea  water"	2011	7	26	2011-07-26T19:00				Asia	Japan	"Otachimisaki, Kumamoto"	32.363		130.488															26																											"Number of bathers: 0; Analyzed in triplicates (n=3) "	2017/4/28	2019/7/17
PRA000033	SAA002023	ST014				O-11072620	Water	"Sea  water"	2011	7	26	2011-07-26T20:00				Asia	Japan	"Otachimisaki, Kumamoto"	32.363		130.488															26																											"Number of bathers: 0; Analyzed in triplicates (n=3) "	2017/4/28	2019/7/17
PRA000033	SAA002024	ST014				O-11072622	Water	"Sea  water"	2011	7	26	2011-07-26T22:00				Asia	Japan	"Otachimisaki, Kumamoto"	32.363		130.488															27																											"Number of bathers: 0; Analyzed in triplicates (n=3) "	2017/4/28	2019/7/17
PRA000033	SAA002025	ST014				O-11072700	Water	"Sea  water"	2011	7	27	2011-07-27T00:00				Asia	Japan	"Otachimisaki, Kumamoto"	32.363		130.488															27																											"Number of bathers: 0; Analyzed in triplicates (n=3) "	2017/4/28	2019/7/17
PRA000033	SAA002026	ST014				O-11072702	Water	"Sea  water"	2011	7	27	2011-07-27T02:00				Asia	Japan	"Otachimisaki, Kumamoto"	32.363		130.488															26																											"Number of bathers: 0; Analyzed in triplicates (n=3) "	2017/4/28	2019/7/17
PRA000033	SAA002027	ST014				O-11072704	Water	"Sea  water"	2011	7	27	2011-07-27T04:00				Asia	Japan	"Otachimisaki, Kumamoto"	32.363		130.488															25																											"Number of bathers: 0; Analyzed in triplicates (n=3) "	2017/4/28	2019/7/17
PRA000033	SAA002028	ST014				O-11072706	Water	"Sea  water"	2011	7	27	2011-07-27T06:00				Asia	Japan	"Otachimisaki, Kumamoto"	32.363		130.488															26																											"Number of bathers: 0; Analyzed in triplicates (n=3) "	2017/4/28	2019/7/17
PRA000033	SAA002029	ST014				O-11072708	Water	"Sea  water"	2011	7	27	2011-07-27T08:00				Asia	Japan	"Otachimisaki, Kumamoto"	32.363		130.488															26																											"Number of bathers: 3; Analyzed in triplicates (n=3) "	2017/4/28	2019/7/17
